createdAt,value
2023-01-29T00:00:09.929Z,98353.53
2023-01-29T00:02:39.272Z,98353.66
2023-01-29T00:05:25.452Z,98352.28
2023-01-29T00:07:53.338Z,98352.44
2023-01-29T00:10:19.815Z,98349.19
2023-01-29T00:12:46.282Z,98341.28
2023-01-29T00:15:12.733Z,98346.59
2023-01-29T00:17:39.213Z,98347.06
2023-01-29T00:20:06.144Z,98338.25
2023-01-29T00:22:32.613Z,98333.69
2023-01-29T00:24:59.157Z,98339.09
2023-01-29T00:27:25.597Z,98345.03
2023-01-29T00:30:11.246Z,98344.41
2023-01-29T00:32:37.745Z,98338.72
2023-01-29T00:35:04.585Z,98337.53
2023-01-29T00:37:31.056Z,98345.81
2023-01-29T00:39:57.675Z,98341.03
2023-01-29T00:42:43.609Z,98341.88
2023-01-29T00:45:12.024Z,98343.59
2023-01-29T00:47:38.448Z,98339.94
2023-01-29T00:50:08.481Z,98345.66
2023-01-29T00:52:36.409Z,98353.28
2023-01-29T00:55:05.633Z,98344.09
2023-01-29T00:57:33.785Z,98344.53
2023-01-29T01:00:00.464Z,98345.22
2023-01-29T01:02:46.276Z,98343.16
2023-01-29T01:05:18.142Z,98344.41
2023-01-29T01:07:53.703Z,98342.31
2023-01-29T01:10:26.301Z,98346.63
2023-01-29T01:13:01.575Z,98338.81
2023-01-29T01:15:31.243Z,98342.41
2023-01-29T01:18:00.226Z,98344.63
2023-01-29T01:20:30.136Z,98341.13
2023-01-29T01:22:57.536Z,98331.41
2023-01-29T01:25:25.669Z,98325.41
2023-01-29T01:27:53.655Z,98333.50
2023-01-29T01:30:20.594Z,98332.84
2023-01-29T01:32:47.050Z,98340.41
2023-01-29T01:35:16.213Z,98344.81
2023-01-29T01:37:42.801Z,98348.31
2023-01-29T01:40:18.047Z,98344.69
2023-01-29T01:42:48.790Z,98347.88
2023-01-29T01:45:20.092Z,98345.22
2023-01-29T01:47:51.314Z,98343.38
2023-01-29T01:50:24.808Z,98338.06
2023-01-29T01:52:55.277Z,98335.41
2023-01-29T01:55:25.983Z,98340.75
2023-01-29T01:58:00.104Z,98331.03
2023-01-29T02:00:26.952Z,98328.69
2023-01-29T02:03:13.105Z,98322.97
2023-01-29T02:05:59.455Z,98321.25
2023-01-29T02:09:03.222Z,98330.34
2023-01-29T02:11:30.626Z,98340.81
2023-01-29T02:13:57.672Z,98343.06
2023-01-29T02:16:25.674Z,98343.59
2023-01-29T02:18:52.801Z,98339.66
2023-01-29T02:21:50.698Z,98330.03
2023-01-29T02:24:59.705Z,98338.88
2023-01-29T02:27:35.967Z,98345.22
2023-01-29T02:30:10.721Z,98340.44
2023-01-29T02:32:58.535Z,98341.66
2023-01-29T02:35:42.592Z,98339.03
2023-01-29T02:38:47.637Z,98338.75
2023-01-29T02:41:22.723Z,98336.91
2023-01-29T02:44:02.193Z,98334.69
2023-01-29T02:46:41.174Z,98331.47
2023-01-29T02:49:26.433Z,98330.81
2023-01-29T02:52:12.543Z,98322.59
2023-01-29T02:55:03.060Z,98330.69
2023-01-29T02:57:35.205Z,98327.59
2023-01-29T03:00:09.559Z,98324.63
2023-01-29T03:02:55.432Z,98328.97
2023-01-29T03:05:30.926Z,98332.31
2023-01-29T03:08:04.616Z,98331.84
2023-01-29T03:10:47.196Z,98335.34
2023-01-29T03:13:22.044Z,98326.69
2023-01-29T03:16:01.409Z,98329.09
2023-01-29T03:18:48.626Z,98332.34
2023-01-29T03:21:41.388Z,98330.25
2023-01-29T03:24:32.200Z,98324.94
2023-01-29T03:27:22.889Z,98329.97
2023-01-29T03:30:10.665Z,98333.72
2023-01-29T03:32:52.036Z,98331.16
2023-01-29T03:35:33.345Z,98325.63
2023-01-29T03:38:00.892Z,98328.84
2023-01-29T03:40:32.481Z,98325.00
2023-01-29T03:43:32.149Z,98323.81
2023-01-29T03:46:21.235Z,98331.03
2023-01-29T03:48:53.245Z,98325.41
2023-01-29T03:51:33.380Z,98331.09
2023-01-29T03:54:07.697Z,98325.63
2023-01-29T03:56:45.695Z,98322.97
2023-01-29T03:59:22.703Z,98329.44
2023-01-29T04:02:11.500Z,98322.44
2023-01-29T04:04:41.698Z,98321.81
2023-01-29T04:07:19.098Z,98328.56
2023-01-29T04:09:50.518Z,98329.16
2023-01-29T04:12:24.329Z,98325.09
2023-01-29T04:14:52.804Z,98330.69
2023-01-29T04:17:26.004Z,98327.34
2023-01-29T04:20:16.218Z,98331.09
2023-01-29T04:22:47.282Z,98324.56
2023-01-29T04:25:17.433Z,98331.13
2023-01-29T04:28:11.359Z,98333.41
2023-01-29T04:30:50.465Z,98341.53
2023-01-29T04:33:32.127Z,98331.03
2023-01-29T04:36:09.860Z,98335.78
2023-01-29T04:38:52.058Z,98330.47
2023-01-29T04:41:30.666Z,98320.66
2023-01-29T04:44:28.698Z,98321.50
2023-01-29T04:47:13.803Z,98330.69
2023-01-29T04:49:52.837Z,98330.25
2023-01-29T04:52:33.239Z,98326.63
2023-01-29T04:55:24.448Z,98330.38
2023-01-29T04:58:00.882Z,98323.97
2023-01-29T05:00:32.263Z,98327.91
2023-01-29T05:03:01.824Z,98322.00
2023-01-29T05:05:29.024Z,98327.56
2023-01-29T05:07:57.913Z,98318.50
2023-01-29T05:10:25.351Z,98314.03
2023-01-29T05:12:58.676Z,98318.50
2023-01-29T05:15:33.460Z,98322.25
2023-01-29T05:18:02.930Z,98319.09
2023-01-29T05:20:34.095Z,98328.75
2023-01-29T05:23:00.621Z,98329.59
2023-01-29T05:25:31.077Z,98339.09
2023-01-29T05:28:16.110Z,98344.63
2023-01-29T05:30:51.251Z,98347.69
2023-01-29T05:33:29.962Z,98346.91
2023-01-29T05:35:58.801Z,98335.44
2023-01-29T05:38:25.846Z,98330.94
2023-01-29T05:40:52.279Z,98328.16
2023-01-29T05:43:21.027Z,98320.38
2023-01-29T05:45:54.377Z,98309.50
2023-01-29T05:48:21.369Z,98288.81
2023-01-29T05:50:48.048Z,98285.38
2023-01-29T05:53:14.644Z,98284.84
2023-01-29T05:55:45.552Z,98296.38
2023-01-29T05:58:12.688Z,98296.00
2023-01-29T06:00:39.640Z,98306.00
2023-01-29T06:03:06.358Z,98312.31
2023-01-29T06:05:32.842Z,98304.88
2023-01-29T06:07:59.241Z,98295.38
2023-01-29T06:10:25.781Z,98304.06
2023-01-29T06:12:52.192Z,98306.72
2023-01-29T06:15:19.749Z,98303.34
2023-01-29T06:17:46.202Z,98305.06
2023-01-29T06:20:13.729Z,98306.16
2023-01-29T06:22:40.303Z,98309.78
2023-01-29T06:25:07.408Z,98312.31
2023-01-29T06:27:34.017Z,98318.47
2023-01-29T06:30:00.539Z,98323.50
2023-01-29T06:32:27.778Z,98317.94
2023-01-29T06:34:54.242Z,98327.97
2023-01-29T06:37:20.687Z,98317.09
2023-01-29T06:39:47.118Z,98325.59
2023-01-29T06:42:13.536Z,98314.69
2023-01-29T06:44:39.945Z,98311.31
2023-01-29T06:47:06.353Z,98312.03
2023-01-29T06:49:32.757Z,98310.53
2023-01-29T06:51:59.243Z,98315.81
2023-01-29T06:54:25.844Z,98323.91
2023-01-29T06:56:52.452Z,98329.66
2023-01-29T06:59:18.887Z,98326.28
2023-01-29T07:01:45.452Z,98331.00
2023-01-29T07:04:12.028Z,98322.06
2023-01-29T07:06:38.557Z,98326.94
2023-01-29T07:09:05.300Z,98322.41
2023-01-29T07:11:32.137Z,98321.56
2023-01-29T07:13:58.566Z,98308.41
2023-01-29T07:16:26.315Z,98317.50
2023-01-29T07:18:53.476Z,98319.16
2023-01-29T07:21:19.923Z,98320.75
2023-01-29T07:23:46.507Z,98325.22
2023-01-29T07:26:13.012Z,98332.72
2023-01-29T07:28:39.957Z,98342.31
2023-01-29T07:31:07.747Z,98347.75
2023-01-29T07:33:34.653Z,98349.94
2023-01-29T07:36:01.176Z,98350.50
2023-01-29T07:38:27.818Z,98348.69
2023-01-29T07:40:54.594Z,98352.56
2023-01-29T07:43:21.049Z,98349.91
2023-01-29T07:45:47.663Z,98344.63
2023-01-29T07:48:14.142Z,98351.31
2023-01-29T07:50:41.147Z,98360.88
2023-01-29T07:53:07.713Z,98359.25
2023-01-29T07:55:34.299Z,98364.97
2023-01-29T07:58:02.806Z,98365.50
2023-01-29T08:00:31.287Z,98365.72
2023-01-29T08:03:24.151Z,98361.66
2023-01-29T08:05:50.675Z,98358.41
2023-01-29T08:08:17.161Z,98358.38
2023-01-29T08:10:43.662Z,98370.59
2023-01-29T08:13:10.182Z,98371.44
2023-01-29T08:18:23.415Z,98380.53
2023-01-29T08:20:49.810Z,98379.97
2023-01-29T08:23:16.598Z,98380.56
2023-01-29T08:25:43.506Z,98385.91
2023-01-29T08:28:11.613Z,98378.44
2023-01-29T08:30:38.552Z,98382.91
2023-01-29T08:33:05.115Z,98379.72
2023-01-29T08:35:31.784Z,98378.06
2023-01-29T08:38:00.888Z,98385.50
2023-01-29T08:40:29.355Z,98392.75
2023-01-29T08:43:02.142Z,98392.56
2023-01-29T08:45:30.183Z,98386.25
2023-01-29T08:47:56.845Z,98389.53
2023-01-29T08:50:23.377Z,98392.13
2023-01-29T08:52:49.797Z,98377.94
2023-01-29T08:55:16.579Z,98386.41
2023-01-29T08:57:43.128Z,98388.66
2023-01-29T09:00:10.584Z,98379.94
2023-01-29T09:02:37.628Z,98384.63
2023-01-29T09:05:04.401Z,98387.56
2023-01-29T09:07:30.847Z,98385.38
2023-01-29T09:09:57.425Z,98395.16
2023-01-29T09:12:23.988Z,98399.94
2023-01-29T09:14:50.509Z,98401.84
2023-01-29T09:17:17.121Z,98399.59
2023-01-29T09:19:43.710Z,98397.06
2023-01-29T09:22:11.836Z,98397.72
2023-01-29T09:24:38.769Z,98396.88
2023-01-29T09:27:06.162Z,98402.88
2023-01-29T09:29:35.452Z,98398.63
2023-01-29T09:32:03.429Z,98399.50
2023-01-29T09:34:29.926Z,98408.66
2023-01-29T09:36:56.388Z,98403.13
2023-01-29T09:39:22.794Z,98393.94
2023-01-29T09:42:01.136Z,98383.44
2023-01-29T09:44:54.412Z,98373.88
2023-01-29T09:47:24.885Z,98366.44
2023-01-29T09:49:59.064Z,98356.09
2023-01-29T09:52:30.148Z,98355.72
2023-01-29T09:55:06.853Z,98358.69
2023-01-29T09:57:56.227Z,98349.56
2023-01-29T10:00:40.235Z,98335.00
2023-01-29T10:03:31.723Z,98331.56
2023-01-29T10:06:16.814Z,98327.00
2023-01-29T10:09:16.043Z,98326.66
2023-01-29T10:11:58.235Z,98324.00
2023-01-29T10:14:43.703Z,98330.03
2023-01-29T10:18:01.510Z,98336.31
2023-01-29T10:20:50.019Z,98336.22
2023-01-29T10:23:41.318Z,98336.97
2023-01-29T10:26:12.601Z,98332.88
2023-01-29T10:28:46.255Z,98342.78
2023-01-29T10:31:18.949Z,98343.16
2023-01-29T10:34:01.382Z,98338.81
2023-01-29T10:36:36.279Z,98347.34
2023-01-29T10:39:02.730Z,98341.09
2023-01-29T10:41:41.085Z,98338.81
2023-01-29T10:44:25.858Z,98326.56
2023-01-29T10:47:23.644Z,98339.91
2023-01-29T10:50:02.215Z,98342.03
2023-01-29T10:52:50.505Z,98346.47
2023-01-29T10:55:28.218Z,98348.97
2023-01-29T10:58:36.103Z,98348.56
2023-01-29T11:01:02.761Z,98339.19
2023-01-29T11:03:33.428Z,98334.03
2023-01-29T11:06:21.629Z,98339.75
2023-01-29T11:08:48.021Z,98347.50
2023-01-29T11:11:17.693Z,98338.53
2023-01-29T11:13:57.522Z,98332.88
2023-01-29T11:16:24.436Z,98328.88
2023-01-29T11:18:54.420Z,98330.34
2023-01-29T11:21:21.295Z,98322.84
2023-01-29T11:23:48.044Z,98311.00
2023-01-29T11:26:20.619Z,98307.38
2023-01-29T11:28:49.605Z,98300.78
2023-01-29T11:31:22.409Z,98288.66
2023-01-29T11:33:52.511Z,98294.56
2023-01-29T11:36:28.484Z,98290.00
2023-01-29T11:39:08.838Z,98300.63
2023-01-29T11:42:04.492Z,98298.44
2023-01-29T11:44:41.875Z,98288.66
2023-01-29T11:47:20.957Z,98287.22
2023-01-29T11:49:59.584Z,98286.16
2023-01-29T11:52:34.729Z,98285.97
2023-01-29T11:55:05.337Z,98281.84
2023-01-29T11:57:42.866Z,98278.06
2023-01-29T12:00:18.677Z,98275.59
2023-01-29T12:02:53.780Z,98268.53
2023-01-29T12:05:23.261Z,98262.53
2023-01-29T12:07:53.212Z,98249.50
2023-01-29T12:10:40.990Z,98249.00
2023-01-29T12:13:10.767Z,98239.25
2023-01-29T12:15:47.457Z,98240.22
2023-01-29T12:18:35.531Z,98228.94
2023-01-29T12:21:04.712Z,98220.84
2023-01-29T12:23:49.764Z,98215.16
2023-01-29T12:26:25.361Z,98204.56
2023-01-29T12:29:04.661Z,98196.84
2023-01-29T12:31:45.708Z,98199.78
2023-01-29T12:34:38.316Z,98200.44
2023-01-29T12:37:34.273Z,98195.28
2023-01-29T12:40:01.679Z,98195.63
2023-01-29T12:42:28.303Z,98182.50
2023-01-29T12:45:01.342Z,98189.16
2023-01-29T12:47:36.022Z,98179.31
2023-01-29T12:50:08.004Z,98188.63
2023-01-29T12:52:41.434Z,98171.97
2023-01-29T12:55:22.067Z,98160.97
2023-01-29T12:57:59.166Z,98151.28
2023-01-29T13:00:29.507Z,98145.63
2023-01-29T13:03:26.517Z,98153.13
2023-01-29T13:05:57.013Z,98148.50
2023-01-29T13:08:30.546Z,98145.69
2023-01-29T13:11:00.919Z,98136.84
2023-01-29T13:13:54.473Z,98142.38
2023-01-29T13:16:37.482Z,98135.53
2023-01-29T13:19:13.882Z,98143.00
2023-01-29T13:21:43.765Z,98134.69
2023-01-29T13:24:15.793Z,98126.53
2023-01-29T13:26:47.307Z,98130.53
2023-01-29T13:29:25.402Z,98139.38
2023-01-29T13:32:03.718Z,98147.34
2023-01-29T13:34:32.295Z,98149.69
2023-01-29T13:37:02.151Z,98162.00
2023-01-29T13:39:30.395Z,98158.50
2023-01-29T13:41:59.106Z,98155.00
2023-01-29T13:44:32.344Z,98159.00
2023-01-29T13:47:01.842Z,98148.66
2023-01-29T13:49:41.340Z,98149.03
2023-01-29T13:52:21.159Z,98155.84
2023-01-29T13:54:57.219Z,98151.34
2023-01-29T13:57:39.207Z,98145.84
2023-01-29T14:00:05.935Z,98144.03
2023-01-29T14:02:32.596Z,98149.50
2023-01-29T14:05:30.282Z,98143.34
2023-01-29T14:07:59.340Z,98146.00
2023-01-29T14:10:31.431Z,98148.19
2023-01-29T14:13:03.775Z,98150.84
2023-01-29T14:15:39.232Z,98145.34
2023-01-29T14:18:18.958Z,98139.53
2023-01-29T14:20:48.259Z,98135.53
2023-01-29T14:23:32.895Z,98129.53
2023-01-29T14:26:01.076Z,98122.19
2023-01-29T14:28:30.857Z,98132.53
2023-01-29T14:30:57.827Z,98130.81
2023-01-29T14:33:27.537Z,98123.84
2023-01-29T14:35:56.804Z,98125.00
2023-01-29T14:38:28.614Z,98126.06
2023-01-29T14:41:32.582Z,98126.00
2023-01-29T14:44:36.776Z,98122.69
2023-01-29T14:47:04.692Z,98123.84
2023-01-29T14:49:58.998Z,98132.16
2023-01-29T14:52:35.867Z,98123.16
2023-01-29T14:55:06.837Z,98121.38
2023-01-29T14:57:34.017Z,98123.69
2023-01-29T15:00:05.246Z,98128.38
2023-01-29T15:02:40.478Z,98125.69
2023-01-29T15:05:30.576Z,98119.84
2023-01-29T15:08:06.214Z,98118.72
2023-01-29T15:10:40.023Z,98122.66
2023-01-29T15:13:29.489Z,98134.59
2023-01-29T15:16:02.723Z,98142.19
2023-01-29T15:18:42.259Z,98135.88
2023-01-29T15:21:17.026Z,98138.44
2023-01-29T15:23:45.261Z,98139.56
2023-01-29T15:26:18.678Z,98132.97
2023-01-29T15:28:54.860Z,98130.88
2023-01-29T15:31:25.899Z,98130.88
2023-01-29T15:33:56.090Z,98121.03
2023-01-29T15:36:24.348Z,98126.19
2023-01-29T15:39:09.433Z,98133.97
2023-01-29T15:41:35.884Z,98125.78
2023-01-29T15:44:02.308Z,98125.59
2023-01-29T15:46:36.254Z,98130.19
2023-01-29T15:49:08.641Z,98127.81
2023-01-29T15:51:35.572Z,98122.28
2023-01-29T15:54:04.776Z,98116.44
2023-01-29T15:56:36.169Z,98116.41
2023-01-29T15:59:09.830Z,98112.69
2023-01-29T16:01:36.658Z,98119.66
2023-01-29T16:04:04.192Z,98120.25
2023-01-29T16:06:37.535Z,98115.94
2023-01-29T16:09:05.398Z,98118.25
2023-01-29T16:11:33.210Z,98117.28
2023-01-29T16:14:01.328Z,98122.44
2023-01-29T16:16:28.549Z,98124.38
2023-01-29T16:19:00.423Z,98125.22
2023-01-29T16:21:33.244Z,98128.63
2023-01-29T16:24:11.823Z,98127.91
2023-01-29T16:26:43.549Z,98126.78
2023-01-29T16:29:11.969Z,98124.69
2023-01-29T16:31:39.656Z,98128.94
2023-01-29T16:34:25.995Z,98129.53
2023-01-29T16:36:54.671Z,98129.53
2023-01-29T16:39:27.666Z,98129.63
2023-01-29T16:42:17.481Z,98128.06
2023-01-29T16:44:54.758Z,98128.56
2023-01-29T16:47:31.408Z,98126.66
2023-01-29T16:50:54.318Z,98129.22
2023-01-29T16:53:23.283Z,98131.38
2023-01-29T16:55:52.388Z,98139.88
2023-01-29T16:58:26.000Z,98139.53
2023-01-29T17:01:00.057Z,98143.66
2023-01-29T17:03:28.522Z,98142.88
2023-01-29T17:05:55.004Z,98142.34
2023-01-29T17:08:33.632Z,98148.03
2023-01-29T17:11:01.328Z,98153.22
2023-01-29T17:13:42.636Z,98153.03
2023-01-29T17:16:32.378Z,98147.00
2023-01-29T17:19:00.220Z,98140.59
2023-01-29T17:21:26.933Z,98136.53
2023-01-29T17:23:53.807Z,98135.53
2023-01-29T17:26:21.009Z,98133.41
2023-01-29T17:28:51.247Z,98133.00
2023-01-29T17:31:17.830Z,98131.06
2023-01-29T17:33:45.807Z,98132.84
2023-01-29T17:36:15.279Z,98130.19
2023-01-29T17:38:41.951Z,98136.38
2023-01-29T17:41:18.338Z,98129.50
2023-01-29T17:43:44.891Z,98131.00
2023-01-29T17:46:16.718Z,98128.09
2023-01-29T17:48:43.767Z,98121.88
2023-01-29T17:51:15.012Z,98118.44
2023-01-29T17:53:45.889Z,98119.75
2023-01-29T17:56:30.897Z,98112.19
2023-01-29T17:58:57.313Z,98115.44
2023-01-29T18:01:23.886Z,98111.41
2023-01-29T18:03:50.407Z,98114.50
2023-01-29T18:06:28.624Z,98110.84
2023-01-29T18:08:56.401Z,98110.28
2023-01-29T18:11:23.451Z,98110.78
2023-01-29T18:13:50.788Z,98107.25
2023-01-29T18:16:18.453Z,98113.66
2023-01-29T18:18:44.983Z,98113.66
2023-01-29T18:21:11.476Z,98102.53
2023-01-29T18:23:37.942Z,98109.50
2023-01-29T18:26:04.805Z,98109.19
2023-01-29T18:28:31.363Z,98108.66
2023-01-29T18:30:57.830Z,98117.72
2023-01-29T18:33:25.789Z,98114.94
2023-01-29T18:35:54.939Z,98113.09
2023-01-29T18:38:21.437Z,98122.28
2023-01-29T18:40:47.926Z,98123.69
2023-01-29T18:43:15.279Z,98114.50
2023-01-29T18:45:42.066Z,98111.75
2023-01-29T18:48:08.793Z,98118.13
2023-01-29T18:50:36.329Z,98108.09
2023-01-29T18:53:04.205Z,98107.28
2023-01-29T18:55:30.723Z,98110.47
2023-01-29T18:58:24.929Z,98114.06
2023-01-29T19:00:43.843Z,98120.34
2023-01-29T19:03:11.092Z,98122.13
2023-01-29T19:05:37.869Z,98123.53
2023-01-29T19:08:05.488Z,98136.34
2023-01-29T19:10:32.054Z,98121.06
2023-01-29T19:12:58.498Z,98123.44
2023-01-29T19:15:24.955Z,98128.84
2023-01-29T19:17:51.659Z,98131.75
2023-01-29T19:20:18.779Z,98134.44
2023-01-29T19:22:45.372Z,98141.25
2023-01-29T19:25:12.583Z,98141.50
2023-01-29T19:27:39.208Z,98146.91
2023-01-29T19:30:06.277Z,98143.56
2023-01-29T19:32:33.047Z,98147.50
2023-01-29T19:34:59.594Z,98137.22
2023-01-29T19:37:26.156Z,98132.59
2023-01-29T19:39:53.755Z,98135.78
2023-01-29T19:42:20.885Z,98136.53
2023-01-29T19:44:47.633Z,98130.41
2023-01-29T19:47:14.217Z,98136.59
2023-01-29T19:49:40.731Z,98129.47
2023-01-29T19:52:14.795Z,98136.03
2023-01-29T19:54:46.539Z,98131.44
2023-01-29T19:57:12.898Z,98128.88
2023-01-29T19:59:39.452Z,98127.91
2023-01-29T20:02:06.371Z,98116.81
2023-01-29T20:04:32.975Z,98118.22
2023-01-29T20:06:59.405Z,98119.03
2023-01-29T20:09:25.910Z,98125.66
2023-01-29T20:11:52.423Z,98119.66
2023-01-29T20:14:18.866Z,98123.34
2023-01-29T20:16:45.344Z,98118.91
2023-01-29T20:19:14.346Z,98124.06
2023-01-29T20:21:42.508Z,98118.72
2023-01-29T20:24:12.623Z,98118.56
2023-01-29T20:26:39.151Z,98114.38
2023-01-29T20:29:06.392Z,98107.31
2023-01-29T20:31:33.756Z,98107.06
2023-01-29T20:34:00.196Z,98101.47
2023-01-29T20:36:26.670Z,98108.44
2023-01-29T20:38:53.127Z,98101.38
2023-01-29T20:41:19.853Z,98102.47
2023-01-29T20:43:47.295Z,98094.00
2023-01-29T20:46:14.267Z,98094.97
2023-01-29T20:48:41.982Z,98092.88
2023-01-29T20:51:15.454Z,98086.25
2023-01-29T20:53:45.043Z,98091.09
2023-01-29T20:56:12.918Z,98083.66
2023-01-29T20:58:40.998Z,98081.38
2023-01-29T21:01:09.665Z,98074.88
2023-01-29T21:03:36.580Z,98074.88
2023-01-29T21:06:03.001Z,98070.50
2023-01-29T21:08:29.520Z,98070.25
2023-01-29T21:10:56.149Z,98069.94
2023-01-29T21:13:22.713Z,98075.81
2023-01-29T21:15:52.597Z,98069.63
2023-01-29T21:18:19.553Z,98075.31
2023-01-29T21:20:46.041Z,98078.88
2023-01-29T21:23:12.500Z,98077.66
2023-01-29T21:25:39.605Z,98082.69
2023-01-29T21:28:06.087Z,98087.34
2023-01-29T21:30:33.743Z,98084.72
2023-01-29T21:33:00.173Z,98084.44
2023-01-29T21:35:26.683Z,98090.50
2023-01-29T21:37:53.186Z,98086.91
2023-01-29T21:40:21.143Z,98085.66
2023-01-29T21:43:06.495Z,98085.66
2023-01-29T21:45:34.774Z,98079.97
2023-01-29T21:48:02.302Z,98070.91
2023-01-29T21:50:28.761Z,98085.78
2023-01-29T21:52:55.188Z,98076.81
2023-01-29T21:55:21.648Z,98075.28
2023-01-29T21:57:48.768Z,98070.13
2023-01-29T22:00:16.003Z,98071.75
2023-01-29T22:02:42.743Z,98066.63
2023-01-29T22:05:18.652Z,98072.16
2023-01-29T22:07:45.755Z,98071.88
2023-01-29T22:10:12.784Z,98074.25
2023-01-29T22:12:39.904Z,98074.97
2023-01-29T22:15:07.805Z,98077.97
2023-01-29T22:17:35.180Z,98071.97
2023-01-29T22:20:02.085Z,98076.34
2023-01-29T22:22:28.552Z,98070.72
2023-01-29T22:24:56.413Z,98070.44
2023-01-29T22:27:22.887Z,98069.50
2023-01-29T22:29:49.362Z,98067.72
2023-01-29T22:32:16.331Z,98072.81
2023-01-29T22:34:42.857Z,98066.22
2023-01-29T22:37:09.262Z,98052.72
2023-01-29T22:39:35.799Z,98043.94
2023-01-29T22:42:02.192Z,98034.22
2023-01-29T22:44:28.661Z,98030.78
2023-01-29T22:46:55.102Z,98017.94
2023-01-29T22:49:21.594Z,98019.34
2023-01-29T22:51:48.100Z,98008.06
2023-01-29T22:54:15.497Z,97997.66
2023-01-29T22:56:41.950Z,97986.66
2023-01-29T22:59:10.051Z,97989.97
2023-01-29T23:01:36.556Z,97979.50
2023-01-29T23:04:03.038Z,97975.75
2023-01-29T23:06:29.510Z,97973.38
2023-01-29T23:08:55.994Z,97978.16
2023-01-29T23:11:23.472Z,97972.53
2023-01-29T23:13:52.727Z,97964.50
2023-01-29T23:16:21.792Z,97973.94
2023-01-29T23:18:53.215Z,97967.00
2023-01-29T23:21:22.610Z,97962.53
2023-01-29T23:23:49.284Z,97956.91
2023-01-29T23:26:34.619Z,97969.16
2023-01-29T23:29:01.166Z,97969.16
2023-01-29T23:31:27.760Z,97970.09
2023-01-29T23:33:54.249Z,97975.84
2023-01-29T23:36:21.173Z,97969.59
2023-01-29T23:38:47.643Z,97969.66
2023-01-29T23:41:14.097Z,97950.81
2023-01-29T23:43:40.576Z,97956.22
2023-01-29T23:46:07.429Z,97952.97
2023-01-29T23:48:33.943Z,97955.31
2023-01-29T23:51:00.608Z,97949.53
2023-01-29T23:53:27.488Z,97944.19
2023-01-29T23:55:59.192Z,97938.78
2023-01-29T23:58:26.470Z,97930.25
